KACV/ACV METAR and TAF weather

Enter ICAO airport designator
Station Type Date Time Source
KACV METAR 2022/06/28 14:13 UTC NOAA

KACV 281413Z AUTO 00000KT 10SM OVC011 12/11 A3017 RMK AO2 T01220111


Station Type Date Time Source
KACV Decoded METAR 2022/06/28 14:13 UTC NOAA

ARCATA/EUREKA ARCATA AIRPORT, CA, United States (KACV) 40-59N 124-06W 67M
Jun 28, 2022 - 10:13 AM EDT / 2022.06.28 1413 UTC
Wind: Calm:0
Visibility: 10 mile(s):0
Sky conditions: overcast
Temperature: 54.0 F (12.2 C)
Dew Point: 52.0 F (11.1 C)
Relative Humidity: 92%
Pressure (altimeter): 30.17 in. Hg (1021 hPa)
ob: KACV 281413Z AUTO 00000KT 10SM OVC011 12/11 A3017 RMK AO2 T01220111
cycle: 14

Station Type Date Time Source
KACV TAF 2022/06/28 14:48 UTC NOAA

TAF
AMD KACV 281347Z 2814/2912 28004KT P6SM SCT004 OVC010
FM281800 33011KT P6SM SCT015
FM290700 VRB03KT P6SM BKN009

Example: see airport list